createdAt,value
2023-04-25T00:02:09.945Z,96246.13
2023-04-25T00:04:39.544Z,96245.41
2023-04-25T00:07:06.857Z,96238.06
2023-04-25T00:09:34.021Z,96247.72
2023-04-25T00:12:02.583Z,96240.50
2023-04-25T00:14:30.410Z,96244.84
2023-04-25T00:16:57.352Z,96235.47
2023-04-25T00:19:24.023Z,96240.88
2023-04-25T00:21:51.218Z,96242.34
2023-04-25T00:24:18.011Z,96244.84
2023-04-25T00:26:44.772Z,96236.38
2023-04-25T00:29:11.497Z,96232.75
2023-04-25T00:31:38.398Z,96235.53
2023-04-25T00:34:05.192Z,96240.19
2023-04-25T00:36:32.560Z,96228.69
2023-04-25T00:38:59.404Z,96219.16
2023-04-25T00:41:27.874Z,96235.28
2023-04-25T00:43:55.934Z,96237.22
2023-04-25T00:46:22.877Z,96250.91
2023-04-25T00:48:49.534Z,96226.84
2023-04-25T00:51:20.312Z,96243.03
2023-04-25T00:53:49.297Z,96247.31
2023-04-25T00:56:16.811Z,96250.38
2023-04-25T00:58:44.592Z,96253.91
2023-04-25T01:01:12.828Z,96247.75
2023-04-25T01:03:44.053Z,96246.78
2023-04-25T01:06:12.421Z,96251.34
2023-04-25T01:08:40.545Z,96242.59
2023-04-25T01:11:07.862Z,96244.06
2023-04-25T01:13:35.103Z,96247.06
2023-04-25T01:16:03.590Z,96251.38
2023-04-25T01:18:30.479Z,96258.81
2023-04-25T01:21:08.024Z,96256.22
2023-04-25T01:23:34.801Z,96253.50
2023-04-25T01:26:02.400Z,96259.25
2023-04-25T01:28:29.575Z,96249.00
2023-04-25T01:30:57.735Z,96254.28
2023-04-25T01:33:24.697Z,96249.44
2023-04-25T01:35:52.734Z,96233.41
2023-04-25T01:38:19.625Z,96257.47
2023-04-25T01:40:50.596Z,96250.38
2023-04-25T01:43:17.616Z,96258.56
2023-04-25T01:45:44.316Z,96246.53
2023-04-25T01:48:13.813Z,96249.78
2023-04-25T01:50:41.406Z,96247.78
2023-04-25T01:53:10.205Z,96246.94
2023-04-25T01:55:36.981Z,96248.75
2023-04-25T01:58:04.292Z,96233.47
2023-04-25T02:00:30.947Z,96234.91
2023-04-25T02:03:00.879Z,96250.94
2023-04-25T02:05:27.585Z,96248.38
2023-04-25T02:07:54.217Z,96248.09
2023-04-25T02:10:21.070Z,96245.81
2023-04-25T02:12:47.736Z,96249.72
2023-04-25T02:15:14.498Z,96252.88
2023-04-25T02:17:41.373Z,96248.59
2023-04-25T02:20:08.504Z,96250.50
2023-04-25T02:22:36.541Z,96257.91
2023-04-25T02:25:05.795Z,96260.25
2023-04-25T02:27:32.475Z,96232.69
2023-04-25T02:29:59.348Z,96257.63
2023-04-25T02:32:26.155Z,96252.03
2023-04-25T02:34:52.935Z,96256.22
2023-04-25T02:37:19.622Z,96251.47
2023-04-25T02:39:46.444Z,96253.50
2023-04-25T02:42:13.205Z,96242.94
2023-04-25T02:44:39.893Z,96220.16
2023-04-25T02:47:06.562Z,96250.81
2023-04-25T02:49:33.269Z,96263.84
2023-04-25T02:52:00.126Z,96256.63
2023-04-25T02:54:27.005Z,96245.66
2023-04-25T02:56:53.668Z,96258.06
2023-04-25T02:59:20.579Z,96245.47
2023-04-25T03:01:47.291Z,96254.25
2023-04-25T03:04:14.080Z,96253.53
2023-04-25T03:06:40.913Z,96247.66
2023-04-25T03:09:07.749Z,96255.75
2023-04-25T03:11:34.683Z,96258.72
2023-04-25T03:14:01.415Z,96253.81
2023-04-25T03:16:28.270Z,96254.59
2023-04-25T03:18:54.920Z,96257.59
2023-04-25T03:21:21.638Z,96255.06
2023-04-25T03:23:48.871Z,96245.09
2023-04-25T03:26:15.774Z,96259.16
2023-04-25T03:28:42.950Z,96237.13
2023-04-25T03:31:09.760Z,96259.28
2023-04-25T03:33:36.480Z,96253.34
2023-04-25T03:36:03.277Z,96264.47
2023-04-25T03:38:30.148Z,96265.25
2023-04-25T03:40:57.520Z,96260.09
2023-04-25T03:43:24.247Z,96262.47
2023-04-25T03:45:51.151Z,96259.22
2023-04-25T03:48:17.957Z,96272.47
2023-04-25T03:50:44.575Z,96269.94
2023-04-25T03:53:11.189Z,96274.81
2023-04-25T03:55:39.508Z,96279.94
2023-04-25T03:58:07.033Z,96285.22
2023-04-25T04:00:35.080Z,96284.41
2023-04-25T04:03:02.090Z,96293.94
2023-04-25T04:05:30.389Z,96294.50
2023-04-25T04:07:57.228Z,96290.19
2023-04-25T04:10:24.002Z,96285.63
2023-04-25T04:12:50.654Z,96289.59
2023-04-25T04:15:17.572Z,96299.41
2023-04-25T04:17:44.392Z,96296.44
2023-04-25T04:20:12.311Z,96299.81
2023-04-25T04:22:39.052Z,96309.84
2023-04-25T04:25:07.091Z,96299.31
2023-04-25T04:27:33.762Z,96308.28
2023-04-25T04:30:00.766Z,96308.72
2023-04-25T04:32:28.666Z,96302.13
2023-04-25T04:34:56.565Z,96318.00
2023-04-25T04:37:23.952Z,96324.25
2023-04-25T04:39:51.351Z,96323.63
2023-04-25T04:42:18.373Z,96321.69
2023-04-25T04:44:45.981Z,96330.72
2023-04-25T04:47:15.186Z,96328.25
2023-04-25T04:49:41.959Z,96327.38
2023-04-25T04:52:11.049Z,96326.00
2023-04-25T04:54:37.757Z,96338.34
2023-04-25T04:57:04.418Z,96323.88
2023-04-25T04:59:31.092Z,96336.59
2023-04-25T05:01:57.843Z,96307.19
2023-04-25T05:04:24.869Z,96325.03
2023-04-25T05:06:52.444Z,96343.78
2023-04-25T05:09:20.389Z,96331.06
2023-04-25T05:11:47.191Z,96326.59
2023-04-25T05:14:13.910Z,96343.88
2023-04-25T05:16:40.631Z,96342.72
2023-04-25T05:19:07.422Z,96339.56
2023-04-25T05:21:34.089Z,96340.34
2023-04-25T05:24:00.972Z,96346.31
2023-04-25T05:26:32.255Z,96335.00
2023-04-25T05:28:59.243Z,96342.09
2023-04-25T05:31:25.985Z,96341.31
2023-04-25T05:33:53.173Z,96334.53
2023-04-25T05:36:20.754Z,96343.78
2023-04-25T05:38:47.442Z,96347.53
2023-04-25T05:41:14.399Z,96352.88
2023-04-25T05:43:51.310Z,96359.28
2023-04-25T05:46:18.370Z,96364.19
2023-04-25T05:48:45.291Z,96362.94
2023-04-25T05:51:12.108Z,96363.38
2023-04-25T05:53:38.751Z,96373.31
2023-04-25T05:56:05.780Z,96367.53
2023-04-25T05:58:33.262Z,96365.78
2023-04-25T06:01:00.560Z,96365.81
2023-04-25T06:03:27.497Z,96372.22
2023-04-25T06:05:54.356Z,96366.00
2023-04-25T06:08:21.427Z,96376.09
2023-04-25T06:10:48.112Z,96369.31
2023-04-25T06:13:14.911Z,96376.91
2023-04-25T06:15:42.617Z,96369.34
2023-04-25T06:18:16.223Z,96376.47
2023-04-25T06:20:42.983Z,96367.16
2023-04-25T06:23:09.948Z,96356.34
2023-04-25T06:25:36.775Z,96374.00
2023-04-25T06:28:03.585Z,96367.78
2023-04-25T06:30:30.971Z,96388.13
2023-04-25T06:32:57.617Z,96375.50
2023-04-25T06:35:26.868Z,96380.97
2023-04-25T06:37:53.755Z,96376.34
2023-04-25T06:40:20.489Z,96380.41
2023-04-25T06:42:47.177Z,96380.59
2023-04-25T06:45:13.895Z,96383.31
2023-04-25T06:47:40.627Z,96379.59
2023-04-25T06:50:08.148Z,96392.22
2023-04-25T06:52:34.784Z,96393.53
2023-04-25T06:55:01.447Z,96388.72
2023-04-25T06:57:28.229Z,96394.34
2023-04-25T06:59:55.038Z,96389.41
2023-04-25T07:02:23.091Z,96384.25
2023-04-25T07:04:49.988Z,96384.47
2023-04-25T07:07:18.210Z,96383.44
2023-04-25T07:09:44.962Z,96383.69
2023-04-25T07:12:11.662Z,96380.03
2023-04-25T07:14:38.872Z,96382.84
2023-04-25T07:17:07.905Z,96375.97
2023-04-25T07:19:34.705Z,96375.81
2023-04-25T07:22:01.705Z,96356.44
2023-04-25T07:24:28.450Z,96388.19
2023-04-25T07:26:55.114Z,96383.28
2023-04-25T07:29:22.037Z,96391.31
2023-04-25T07:31:49.268Z,96382.41
2023-04-25T07:34:16.755Z,96389.53
2023-04-25T07:36:43.460Z,96385.84
2023-04-25T07:39:10.439Z,96390.41
2023-04-25T07:41:37.112Z,96386.09
2023-04-25T07:44:03.985Z,96364.94
2023-04-25T07:46:30.768Z,96381.69
2023-04-25T07:48:57.434Z,96377.69
2023-04-25T07:51:24.053Z,96378.44
2023-04-25T07:53:50.904Z,96382.47
2023-04-25T07:56:17.838Z,96382.13
2023-04-25T07:58:44.663Z,96383.22
2023-04-25T08:01:11.520Z,96357.53
2023-04-25T08:03:38.422Z,96381.72
2023-04-25T08:06:08.195Z,96379.28
2023-04-25T08:08:35.337Z,96384.28
2023-04-25T08:11:01.976Z,96379.84
2023-04-25T08:13:31.699Z,96378.72
2023-04-25T08:15:58.447Z,96363.72
2023-04-25T08:18:25.209Z,96383.78
2023-04-25T08:20:52.093Z,96389.47
2023-04-25T08:23:21.274Z,96361.66
2023-04-25T08:25:48.000Z,96385.75
2023-04-25T08:28:16.334Z,96387.00
2023-04-25T08:30:42.962Z,96387.28
2023-04-25T08:33:09.736Z,96382.16
2023-04-25T08:35:36.690Z,96369.50
2023-04-25T08:38:03.468Z,96390.16
2023-04-25T08:40:31.377Z,96392.31
2023-04-25T08:43:04.405Z,96396.47
2023-04-25T08:45:33.415Z,96393.03
2023-04-25T08:48:01.347Z,96387.22
2023-04-25T08:50:28.460Z,96386.66
2023-04-25T08:52:57.903Z,96388.75
2023-04-25T08:55:25.330Z,96379.13
2023-04-25T08:57:53.194Z,96382.41
2023-04-25T09:00:20.251Z,96389.56
2023-04-25T09:02:48.313Z,96399.97
2023-04-25T09:05:15.720Z,96395.28
2023-04-25T09:07:42.522Z,96388.53
2023-04-25T09:10:09.848Z,96390.88
2023-04-25T09:12:37.534Z,96401.25
2023-04-25T09:15:09.762Z,96398.44
2023-04-25T09:17:41.370Z,96406.72
2023-04-25T09:20:13.183Z,96381.69
2023-04-25T09:22:40.076Z,96402.19
2023-04-25T09:25:12.457Z,96407.50
2023-04-25T09:27:52.885Z,96416.13
2023-04-25T09:30:20.405Z,96405.38
2023-04-25T09:32:48.155Z,96410.56
2023-04-25T09:35:26.698Z,96406.91
2023-04-25T09:37:53.412Z,96401.38
2023-04-25T09:40:20.118Z,96407.66
2023-04-25T09:42:46.925Z,96408.47
2023-04-25T09:45:14.626Z,96408.91
2023-04-25T09:47:45.128Z,96404.09
2023-04-25T09:50:18.566Z,96403.97
2023-04-25T09:52:45.246Z,96397.19
2023-04-25T09:55:12.438Z,96403.06
2023-04-25T09:57:42.569Z,96389.56
2023-04-25T10:00:12.147Z,96400.06
2023-04-25T10:02:43.655Z,96402.44
2023-04-25T10:05:11.954Z,96393.38
2023-04-25T10:07:39.983Z,96391.84
2023-04-25T10:10:07.288Z,96404.34
2023-04-25T10:12:35.035Z,96403.91
2023-04-25T10:15:02.602Z,96393.06
2023-04-25T10:17:29.634Z,96395.53
2023-04-25T10:19:57.510Z,96399.94
2023-04-25T10:22:42.389Z,96386.06
2023-04-25T10:25:10.201Z,96390.25
2023-04-25T10:27:38.296Z,96387.75
2023-04-25T10:30:11.490Z,96396.03
2023-04-25T10:32:38.474Z,96381.81
2023-04-25T10:35:18.857Z,96391.97
2023-04-25T10:38:12.540Z,96386.25
2023-04-25T10:40:39.598Z,96378.53
2023-04-25T10:43:35.914Z,96387.84
2023-04-25T10:46:03.152Z,96382.03
2023-04-25T10:48:31.747Z,96362.97
2023-04-25T10:51:12.154Z,96367.00
2023-04-25T10:53:38.948Z,96363.16
2023-04-25T10:56:33.126Z,96370.31
2023-04-25T10:59:12.915Z,96373.78
2023-04-25T11:01:45.906Z,96369.97
2023-04-25T11:04:35.527Z,96370.97
2023-04-25T11:07:11.483Z,96364.47
2023-04-25T11:09:42.131Z,96366.72
2023-04-25T11:12:10.105Z,96370.19
2023-04-25T11:14:37.611Z,96359.84
2023-04-25T11:17:04.463Z,96365.28
2023-04-25T11:19:31.672Z,96342.25
2023-04-25T11:21:59.923Z,96369.69
2023-04-25T11:24:33.648Z,96358.38
2023-04-25T11:27:01.134Z,96371.06
2023-04-25T11:29:28.485Z,96367.53
2023-04-25T11:31:59.752Z,96366.72
2023-04-25T11:34:27.418Z,96371.66
2023-04-25T11:36:54.975Z,96369.69
2023-04-25T11:39:21.981Z,96364.53
2023-04-25T11:41:49.124Z,96374.66
2023-04-25T11:44:19.859Z,96373.78
2023-04-25T11:46:47.150Z,96372.44
2023-04-25T11:49:15.391Z,96374.03
2023-04-25T11:51:48.034Z,96376.84
2023-04-25T11:54:15.536Z,96380.34
2023-04-25T11:56:46.339Z,96376.00
2023-04-25T11:59:14.118Z,96369.97
2023-04-25T12:01:48.712Z,96378.69
2023-04-25T12:04:21.420Z,96368.31
2023-04-25T12:06:50.156Z,96378.81
2023-04-25T12:09:22.713Z,96360.25
2023-04-25T12:11:54.943Z,96376.94
2023-04-25T12:14:28.382Z,96375.69
2023-04-25T12:17:01.831Z,96348.91
2023-04-25T12:19:34.645Z,96362.06
2023-04-25T12:22:04.306Z,96377.31
2023-04-25T12:24:38.398Z,96370.72
2023-04-25T12:27:09.585Z,96370.31
2023-04-25T12:29:48.685Z,96371.88
2023-04-25T12:32:18.255Z,96370.13
2023-04-25T12:34:45.046Z,96374.53
2023-04-25T12:37:12.587Z,96371.91
2023-04-25T12:39:39.565Z,96366.28
2023-04-25T12:42:09.821Z,96359.50
2023-04-25T12:44:37.978Z,96364.25
2023-04-25T12:47:05.412Z,96372.13
2023-04-25T12:49:32.835Z,96371.16
2023-04-25T12:51:59.957Z,96381.28
2023-04-25T12:54:27.189Z,96373.09
2023-04-25T12:56:53.980Z,96375.50
2023-04-25T12:59:21.641Z,96381.09
2023-04-25T13:01:48.914Z,96356.31
2023-04-25T13:04:16.248Z,96377.88
2023-04-25T13:06:44.227Z,96360.88
2023-04-25T13:09:13.843Z,96379.09
2023-04-25T13:11:41.628Z,96375.88
2023-04-25T13:14:18.413Z,96380.50
2023-04-25T13:16:47.009Z,96380.59
2023-04-25T13:19:13.926Z,96374.56
2023-04-25T13:21:40.617Z,96375.44
2023-04-25T13:24:07.823Z,96377.72
2023-04-25T13:26:34.509Z,96361.56
2023-04-25T13:29:01.710Z,96374.56
2023-04-25T13:31:30.738Z,96379.09
2023-04-25T13:33:57.418Z,96357.16
2023-04-25T13:36:24.051Z,96383.56
2023-04-25T13:38:51.024Z,96377.72
2023-04-25T13:41:19.985Z,96369.56
2023-04-25T13:43:50.087Z,96378.69
2023-04-25T13:46:35.161Z,96383.72
2023-04-25T13:49:12.168Z,96380.03
2023-04-25T13:51:40.000Z,96387.88
2023-04-25T13:54:06.799Z,96388.78
2023-04-25T13:56:33.557Z,96389.91
2023-04-25T13:59:00.241Z,96384.72
2023-04-25T14:01:28.697Z,96381.56
2023-04-25T14:03:55.747Z,96375.63
2023-04-25T14:06:25.068Z,96394.50
2023-04-25T14:08:52.078Z,96389.63
2023-04-25T14:11:19.524Z,96385.88
2023-04-25T14:13:46.998Z,96386.66
2023-04-25T14:16:13.922Z,96396.06
2023-04-25T14:18:41.124Z,96389.75
2023-04-25T14:21:08.235Z,96384.25
2023-04-25T14:23:35.085Z,96385.50
2023-04-25T14:26:01.968Z,96389.81
2023-04-25T14:28:28.725Z,96394.44
2023-04-25T14:30:55.654Z,96390.00
2023-04-25T14:33:23.267Z,96389.28
2023-04-25T14:35:49.917Z,96396.88
2023-04-25T14:38:16.742Z,96394.47
2023-04-25T14:40:43.673Z,96365.53
2023-04-25T14:43:10.305Z,96393.59
2023-04-25T14:45:37.057Z,96398.34
2023-04-25T14:48:04.084Z,96401.84
2023-04-25T14:50:31.276Z,96397.75
2023-04-25T14:53:00.296Z,96398.22
2023-04-25T14:55:28.016Z,96405.09
2023-04-25T14:57:57.433Z,96409.47
2023-04-25T15:00:24.560Z,96400.63
2023-04-25T15:02:51.687Z,96409.75
2023-04-25T15:05:19.040Z,96409.47
2023-04-25T15:07:45.705Z,96407.47
2023-04-25T15:10:16.787Z,96393.47
2023-04-25T15:12:48.010Z,96415.13
2023-04-25T15:15:22.498Z,96416.00
2023-04-25T15:17:53.774Z,96420.16
2023-04-25T15:20:21.676Z,96408.59
2023-04-25T15:22:49.959Z,96403.16
2023-04-25T15:25:19.257Z,96409.75
2023-04-25T15:27:49.274Z,96415.41
2023-04-25T15:30:18.051Z,96419.34
2023-04-25T15:32:48.621Z,96419.81
2023-04-25T15:35:16.278Z,96417.28
2023-04-25T15:37:43.600Z,96419.44
2023-04-25T15:40:13.955Z,96421.44
2023-04-25T15:42:48.144Z,96410.03
2023-04-25T15:45:17.988Z,96409.47
2023-04-25T15:47:45.536Z,96404.44
2023-04-25T15:50:13.343Z,96407.38
2023-04-25T15:52:40.095Z,96393.25
2023-04-25T15:55:07.976Z,96395.84
2023-04-25T15:57:36.290Z,96409.34
2023-04-25T16:00:17.988Z,96407.34
2023-04-25T16:02:52.886Z,96396.50
2023-04-25T16:05:20.059Z,96409.63
2023-04-25T16:07:47.972Z,96402.13
2023-04-25T16:10:17.377Z,96393.84
2023-04-25T16:12:44.104Z,96400.66
2023-04-25T16:15:11.615Z,96407.00
2023-04-25T16:17:38.372Z,96406.66
2023-04-25T16:20:10.464Z,96396.00
2023-04-25T16:22:39.716Z,96406.34
2023-04-25T16:25:07.665Z,96405.94
2023-04-25T16:27:38.961Z,96417.59
2023-04-25T16:30:08.445Z,96412.41
2023-04-25T16:32:35.961Z,96423.03
2023-04-25T16:35:03.428Z,96425.03
2023-04-25T16:37:30.274Z,96424.97
2023-04-25T16:39:57.035Z,96433.13
2023-04-25T16:42:25.131Z,96424.41
2023-04-25T16:44:52.182Z,96427.13
2023-04-25T16:47:20.400Z,96427.13
2023-04-25T16:49:47.560Z,96427.13
2023-04-25T16:52:15.435Z,96407.59
2023-04-25T16:54:42.217Z,96422.63
2023-04-25T16:57:11.531Z,96432.94
2023-04-25T16:59:39.449Z,96440.38
2023-04-25T17:02:08.481Z,96429.75
2023-04-25T17:04:38.586Z,96440.38
2023-04-25T17:07:05.711Z,96438.78
2023-04-25T17:09:33.057Z,96427.31
2023-04-25T17:12:00.198Z,96444.75
2023-04-25T17:14:27.292Z,96440.38
2023-04-25T17:16:54.127Z,96447.41
2023-04-25T17:19:21.752Z,96437.94
2023-04-25T17:21:48.470Z,96427.00
2023-04-25T17:24:16.025Z,96445.06
2023-04-25T17:26:44.354Z,96443.09
2023-04-25T17:29:13.064Z,96456.69
2023-04-25T17:31:41.006Z,96454.06
2023-04-25T17:34:10.305Z,96438.53
2023-04-25T17:36:37.990Z,96458.13
2023-04-25T17:39:07.149Z,96445.19
2023-04-25T17:41:35.035Z,96456.16
2023-04-25T17:44:02.743Z,96464.25
2023-04-25T17:46:30.335Z,96468.13
2023-04-25T17:49:00.840Z,96460.97
2023-04-25T17:51:28.913Z,96461.91
2023-04-25T17:53:57.667Z,96470.44
2023-04-25T17:56:27.465Z,96445.34
2023-04-25T17:58:56.386Z,96469.16
2023-04-25T18:01:24.340Z,96477.31
2023-04-25T18:03:52.532Z,96487.84
2023-04-25T18:06:20.538Z,96496.69
2023-04-25T18:08:48.545Z,96494.25
2023-04-25T18:11:17.373Z,96498.91
2023-04-25T18:13:48.054Z,96480.31
2023-04-25T18:16:15.543Z,96513.28
2023-04-25T18:18:45.179Z,96512.16
2023-04-25T18:21:15.215Z,96513.88
2023-04-25T18:23:42.331Z,96509.84
2023-04-25T18:26:09.076Z,96518.00
2023-04-25T18:28:35.814Z,96507.50
2023-04-25T18:31:03.011Z,96507.88
2023-04-25T18:33:29.954Z,96530.03
2023-04-25T18:35:59.566Z,96533.72
2023-04-25T18:41:13.073Z,96546.91
2023-04-25T18:43:45.614Z,96550.06
2023-04-25T18:46:13.229Z,96546.69
2023-04-25T18:48:40.764Z,96539.78
2023-04-25T18:51:09.231Z,96549.22
2023-04-25T18:53:37.951Z,96563.97
2023-04-25T18:56:05.894Z,96566.81
2023-04-25T18:58:33.194Z,96572.44
2023-04-25T19:01:03.117Z,96573.00
2023-04-25T19:03:30.198Z,96575.75
2023-04-25T19:05:59.386Z,96586.97
2023-04-25T19:08:27.578Z,96557.22
2023-04-25T19:10:54.479Z,96565.03
2023-04-25T19:13:21.872Z,96590.94
2023-04-25T19:15:49.169Z,96588.34
2023-04-25T19:18:17.508Z,96557.78
2023-04-25T19:20:44.688Z,96580.06
2023-04-25T19:23:11.429Z,96568.66
2023-04-25T19:25:38.162Z,96590.63
2023-04-25T19:28:05.137Z,96562.66
2023-04-25T19:30:32.010Z,96581.13
2023-04-25T19:32:59.215Z,96587.88
2023-04-25T19:35:30.918Z,96578.41
2023-04-25T19:37:57.718Z,96586.53
2023-04-25T19:40:25.576Z,96576.91
2023-04-25T19:42:52.265Z,96589.00
2023-04-25T19:45:19.422Z,96564.31
2023-04-25T19:47:46.118Z,96592.06
2023-04-25T19:50:13.157Z,96598.63
2023-04-25T19:52:40.692Z,96599.75
2023-04-25T19:55:08.517Z,96582.75
2023-04-25T19:57:38.022Z,96610.03
2023-04-25T20:00:11.098Z,96609.31
2023-04-25T20:02:38.408Z,96604.09
2023-04-25T20:05:07.199Z,96602.19
2023-04-25T20:07:35.378Z,96605.91
2023-04-25T20:10:03.154Z,96603.75
2023-04-25T20:12:30.539Z,96610.69
2023-04-25T20:14:59.175Z,96595.03
2023-04-25T20:17:26.588Z,96592.75
2023-04-25T20:19:54.005Z,96599.09
2023-04-25T20:22:21.914Z,96595.72
2023-04-25T20:24:53.372Z,96575.09
2023-04-25T20:27:22.154Z,96581.25
2023-04-25T20:29:49.386Z,96607.28
2023-04-25T20:32:16.616Z,96602.19
2023-04-25T20:34:43.972Z,96600.94
2023-04-25T20:37:11.339Z,96612.25
2023-04-25T20:39:38.138Z,96615.03
2023-04-25T20:42:04.836Z,96605.19
2023-04-25T20:44:32.671Z,96621.38
2023-04-25T20:47:00.296Z,96627.72
2023-04-25T20:49:27.507Z,96623.75
2023-04-25T20:51:54.773Z,96637.78
2023-04-25T20:54:21.862Z,96633.94
2023-04-25T20:56:48.496Z,96628.00
2023-04-25T20:59:15.622Z,96631.09
2023-04-25T21:01:43.011Z,96636.63
2023-04-25T21:04:10.676Z,96629.03
2023-04-25T21:06:38.362Z,96617.53
2023-04-25T21:09:07.482Z,96627.19
2023-04-25T21:11:35.198Z,96636.91
2023-04-25T21:14:03.000Z,96644.50
2023-04-25T21:16:34.933Z,96644.91
2023-04-25T21:19:03.253Z,96646.81
2023-04-25T21:21:32.265Z,96646.03
2023-04-25T21:24:00.086Z,96644.91
2023-04-25T21:26:28.578Z,96657.31
2023-04-25T21:28:56.075Z,96647.94
2023-04-25T21:31:23.649Z,96654.69
2023-04-25T21:33:51.299Z,96639.84
2023-04-25T21:36:18.785Z,96649.72
2023-04-25T21:38:46.301Z,96649.50
2023-04-25T21:41:14.187Z,96648.72
2023-04-25T21:43:42.430Z,96653.06
2023-04-25T21:48:40.562Z,96659.75
2023-04-25T21:51:08.346Z,96652.81
2023-04-25T21:53:35.994Z,96672.59
2023-04-25T21:56:03.666Z,96669.44
2023-04-25T21:58:31.456Z,96667.66
2023-04-25T22:01:00.554Z,96675.31
2023-04-25T22:03:28.261Z,96678.50
2023-04-25T22:05:57.051Z,96686.16
2023-04-25T22:08:24.708Z,96676.28
2023-04-25T22:10:53.831Z,96685.72
2023-04-25T22:13:21.464Z,96685.25
2023-04-25T22:15:49.376Z,96679.09
2023-04-25T22:18:17.026Z,96694.16
2023-04-25T22:20:45.080Z,96695.97
2023-04-25T22:23:12.757Z,96699.75
2023-04-25T22:25:40.608Z,96701.19
2023-04-25T22:28:07.963Z,96708.84
2023-04-25T22:30:35.220Z,96686.72
2023-04-25T22:33:02.111Z,96707.47
2023-04-25T22:35:28.921Z,96709.25
2023-04-25T22:37:55.576Z,96697.59
2023-04-25T22:40:22.475Z,96706.41
2023-04-25T22:42:49.137Z,96687.69
2023-04-25T22:45:16.202Z,96706.13
2023-04-25T22:47:44.403Z,96712.03
2023-04-25T22:50:16.828Z,96704.44
2023-04-25T22:52:43.948Z,96697.63
2023-04-25T22:55:12.595Z,96682.28
2023-04-25T22:57:39.599Z,96709.13
2023-04-25T23:00:20.313Z,96715.34
2023-04-25T23:02:47.947Z,96708.66
2023-04-25T23:05:15.797Z,96715.69
2023-04-25T23:07:43.877Z,96713.91
2023-04-25T23:10:11.101Z,96718.75
2023-04-25T23:12:38.076Z,96673.00
2023-04-25T23:15:05.644Z,96726.00
2023-04-25T23:17:32.615Z,96725.34
2023-04-25T23:19:59.609Z,96718.53
2023-04-25T23:22:26.799Z,96716.84
2023-04-25T23:24:53.611Z,96726.06
2023-04-25T23:27:20.325Z,96739.28
2023-04-25T23:29:58.129Z,96731.28
2023-04-25T23:32:26.301Z,96727.00
2023-04-25T23:34:53.140Z,96740.69
2023-04-25T23:37:20.427Z,96753.81
2023-04-25T23:39:50.884Z,96752.09
2023-04-25T23:42:18.013Z,96744.75
2023-04-25T23:44:44.983Z,96732.53
2023-04-25T23:47:14.338Z,96745.69
2023-04-25T23:49:41.304Z,96745.56
2023-04-25T23:52:08.221Z,96739.06
2023-04-25T23:54:35.110Z,96710.81
2023-04-25T23:57:04.485Z,96747.66
2023-04-25T23:59:32.167Z,96713.66
